createdAt,value
2017-03-11T00:00:04.177Z,1021.77
2017-03-11T00:01:15.045Z,1021.74
2017-03-11T00:02:25.770Z,1021.71
2017-03-11T00:03:36.643Z,1021.75
2017-03-11T00:04:47.507Z,1021.75
2017-03-11T00:05:58.410Z,1021.77
2017-03-11T00:07:08.449Z,1021.76
2017-03-11T00:08:19.136Z,1021.73
2017-03-11T00:09:29.987Z,1021.72
2017-03-11T00:10:40.855Z,1021.74
2017-03-11T00:11:51.322Z,1021.74
2017-03-11T00:13:02.204Z,1021.83
2017-03-11T00:14:13.318Z,1021.82
2017-03-11T00:15:23.372Z,1021.79
2017-03-11T00:16:33.836Z,1021.78
2017-03-11T00:17:44.287Z,1021.8
2017-03-11T00:18:54.777Z,1021.75
2017-03-11T00:20:05.496Z,1021.77
2017-03-11T00:21:15.549Z,1021.77
2017-03-11T00:22:25.613Z,1021.76
2017-03-11T00:23:35.258Z,1021.76
2017-03-11T00:24:46.126Z,1021.71
2017-03-11T00:25:56.809Z,1021.71
2017-03-11T00:27:07.270Z,1021.72
2017-03-11T00:28:18.153Z,1021.74
2017-03-11T00:29:28.602Z,1021.68
2017-03-11T00:30:39.485Z,1021.72
2017-03-11T00:31:50.692Z,1021.75
2017-03-11T00:33:01.571Z,1021.72
2017-03-11T00:34:12.081Z,1021.72
2017-03-11T00:35:22.600Z,1021.68
2017-03-11T00:36:33.483Z,1021.71
2017-03-11T00:37:44.240Z,1021.7
2017-03-11T00:38:55.112Z,1021.72
2017-03-11T00:40:05.546Z,1021.7
2017-03-11T00:41:16.390Z,1021.71
2017-03-11T00:42:27.248Z,1021.69
2017-03-11T00:43:38.487Z,1021.67
2017-03-11T00:44:49.370Z,1021.68
2017-03-11T00:46:00.205Z,1021.61
2017-03-11T00:47:10.243Z,1021.64
2017-03-11T00:48:21.094Z,1021.63
2017-03-11T00:49:31.872Z,1021.67
2017-03-11T00:50:42.325Z,1021.66
2017-03-11T00:51:52.784Z,1021.7
2017-03-11T00:53:03.651Z,1021.7
2017-03-11T00:54:13.949Z,1021.69
2017-03-11T00:55:24.355Z,1021.73
2017-03-11T00:56:35.206Z,1021.7
2017-03-11T00:57:46.052Z,1021.7
2017-03-11T00:58:56.518Z,1021.66
2017-03-11T01:00:06.967Z,1021.69
2017-03-11T01:01:18.173Z,1021.68
2017-03-11T01:02:29.129Z,1021.69
2017-03-11T01:03:40.039Z,1021.66
2017-03-11T01:04:50.922Z,1021.63
2017-03-11T01:06:01.376Z,1021.63
2017-03-11T01:07:12.487Z,1021.62
2017-03-11T01:08:23.350Z,1021.61
2017-03-11T01:09:34.199Z,1021.57
2017-03-11T01:10:45.056Z,1021.53
2017-03-11T01:11:55.489Z,1021.51
2017-03-11T01:13:06.595Z,1021.52
2017-03-11T01:14:17.449Z,1021.51
2017-03-11T01:15:28.301Z,1021.51
2017-03-11T01:16:38.774Z,1021.49
2017-03-11T01:17:49.613Z,1021.47
2017-03-11T01:19:00.771Z,1021.47
2017-03-11T01:20:11.223Z,1021.44
2017-03-11T01:21:21.657Z,1021.48
2017-03-11T01:22:32.502Z,1021.45
2017-03-11T01:23:43.367Z,1021.46
2017-03-11T01:24:54.483Z,1021.51
2017-03-11T01:26:05.331Z,1021.49
2017-03-11T01:27:16.183Z,1021.46
2017-03-11T01:28:26.640Z,1021.48
2017-03-11T01:29:36.698Z,1021.51
2017-03-11T01:30:47.808Z,1021.48
2017-03-11T01:31:58.687Z,1021.48
2017-03-11T01:33:09.539Z,1021.45
2017-03-11T01:34:20.413Z,1021.41
2017-03-11T01:35:30.883Z,1021.46
2017-03-11T01:36:41.990Z,1021.42
2017-03-11T01:37:52.833Z,1021.4
2017-03-11T01:39:03.664Z,1021.42
2017-03-11T01:40:14.498Z,1021.42
2017-03-11T01:41:25.367Z,1021.4
2017-03-11T01:42:35.661Z,1021.45
2017-03-11T01:43:46.525Z,1021.48
2017-03-11T01:44:57.398Z,1021.47
2017-03-11T01:46:07.559Z,1021.46
2017-03-11T01:47:18.436Z,1021.42
2017-03-11T01:48:29.530Z,1021.43
2017-03-11T01:49:40.380Z,1021.4
2017-03-11T01:50:51.216Z,1021.41
2017-03-11T01:52:02.074Z,1021.42
2017-03-11T01:53:12.915Z,1021.43
2017-03-11T01:54:23.613Z,1021.42
2017-03-11T01:55:33.702Z,1021.41
2017-03-11T01:56:44.553Z,1021.36
2017-03-11T01:57:55.402Z,1021.37
2017-03-11T01:59:05.875Z,1021.39
2017-03-11T02:00:16.960Z,1021.39
2017-03-11T02:01:27.391Z,1021.35
2017-03-11T02:02:38.253Z,1021.32
2017-03-11T02:03:49.130Z,1021.34
2017-03-11T02:04:59.971Z,1021.26
2017-03-11T02:06:10.272Z,1021.28
2017-03-11T02:07:20.336Z,1021.25
2017-03-11T02:08:31.177Z,1021.27
2017-03-11T02:09:42.020Z,1021.25
2017-03-11T02:10:52.867Z,1021.22
2017-03-11T02:12:03.996Z,1021.22
2017-03-11T02:13:14.454Z,1021.17
2017-03-11T02:14:24.912Z,1021.18
2017-03-11T02:15:35.770Z,1021.17
2017-03-11T02:16:46.654Z,1021.18
2017-03-11T02:17:57.821Z,1021.19
2017-03-11T02:19:08.428Z,1021.22
2017-03-11T02:20:19.287Z,1021.21
2017-03-11T02:21:30.162Z,1021.25
2017-03-11T02:22:41.026Z,1021.26
2017-03-11T02:23:51.718Z,1021.26
2017-03-11T02:25:02.567Z,1021.21
2017-03-11T02:26:13.414Z,1021.25
2017-03-11T02:27:23.880Z,1021.23
2017-03-11T02:28:33.920Z,1021.23
2017-03-11T02:29:44.614Z,1021.22
2017-03-11T02:30:55.085Z,1021.22
2017-03-11T02:32:05.539Z,1021.2
2017-03-11T02:33:15.573Z,1021.2
2017-03-11T02:34:26.445Z,1021.19
2017-03-11T02:35:36.745Z,1021.21
2017-03-11T02:36:47.600Z,1021.24
2017-03-11T02:37:58.455Z,1021.24
2017-03-11T02:39:09.315Z,1021.26
2017-03-11T02:40:19.372Z,1021.23
2017-03-11T02:41:30.084Z,1021.2
2017-03-11T02:42:40.938Z,1021.24
2017-03-11T02:43:51.785Z,1021.18
2017-03-11T02:45:02.644Z,1021.16
2017-03-11T02:46:13.501Z,1021.18
2017-03-11T02:47:24.649Z,1021.17
2017-03-11T02:48:35.087Z,1021.13
2017-03-11T02:49:45.942Z,1021.16
2017-03-11T02:50:56.409Z,1021.15
2017-03-11T02:52:06.854Z,1021.14
2017-03-11T02:53:17.571Z,1021.14
2017-03-11T02:54:28.432Z,1021.14
2017-03-11T02:55:38.473Z,1021.11
2017-03-11T02:56:49.325Z,1021.12
2017-03-11T02:58:00.173Z,1021.08
2017-03-11T02:59:11.313Z,1021.13
2017-03-11T03:00:21.758Z,1021.13
2017-03-11T03:01:32.199Z,1021.13
2017-03-11T03:02:42.650Z,1021.11
2017-03-11T03:03:52.697Z,1021.14
2017-03-11T03:05:03.376Z,1021.13
2017-03-11T03:06:13.865Z,1021.16
2017-03-11T03:07:24.739Z,1021.15
2017-03-11T03:08:35.184Z,1021.15
2017-03-11T03:09:45.629Z,1021.17
2017-03-11T03:10:56.772Z,1021.15
2017-03-11T03:12:07.625Z,1021.14
2017-03-11T03:13:18.503Z,1021.15
2017-03-11T03:14:28.938Z,1021.14
2017-03-11T03:15:39.428Z,1021.09
2017-03-11T03:16:50.105Z,1021.07
2017-03-11T03:18:00.999Z,1021.08
2017-03-11T03:19:10.662Z,1021.1
2017-03-11T03:20:20.844Z,1021.07
2017-03-11T03:21:31.735Z,1021.07
2017-03-11T03:22:42.016Z,1021.08
2017-03-11T03:23:52.452Z,1021.04
2017-03-11T03:25:03.304Z,1021.06
2017-03-11T03:26:13.747Z,1021.06
2017-03-11T03:27:24.169Z,1021.06
2017-03-11T03:28:34.870Z,1021.08
2017-03-11T03:29:45.708Z,1021.09
2017-03-11T03:30:56.567Z,1021.1
2017-03-11T03:32:07.400Z,1021.07
2017-03-11T03:33:17.860Z,1021.07
2017-03-11T03:34:28.621Z,1021.04
2017-03-11T03:35:39.471Z,1021.05
2017-03-11T03:36:50.874Z,1021.04
2017-03-11T03:38:01.323Z,1021.04
2017-03-11T03:39:12.163Z,1021.03
2017-03-11T03:40:22.882Z,1021.03
2017-03-11T03:41:32.932Z,1020.97
2017-03-11T03:42:43.776Z,1020.98
2017-03-11T03:43:54.628Z,1020.94
2017-03-11T03:45:05.475Z,1020.9
2017-03-11T03:46:16.186Z,1020.89
2017-03-11T03:47:26.630Z,1020.9
2017-03-11T03:48:37.466Z,1020.91
2017-03-11T03:49:47.917Z,1020.9
2017-03-11T03:50:58.781Z,1020.91
2017-03-11T03:52:09.884Z,1020.91
2017-03-11T03:53:20.727Z,1020.89
2017-03-11T03:54:31.567Z,1020.89
2017-03-11T03:55:42.016Z,1020.86
2017-03-11T03:56:52.855Z,1020.85
2017-03-11T03:58:03.178Z,1020.85
2017-03-11T03:59:14.029Z,1020.85
2017-03-11T04:00:24.457Z,1020.88
2017-03-11T04:01:34.896Z,1020.88
2017-03-11T04:02:45.747Z,1020.86
2017-03-11T04:03:56.483Z,1020.85
2017-03-11T04:05:07.335Z,1020.88
2017-03-11T04:06:17.769Z,1020.85
2017-03-11T04:07:28.615Z,1020.92
2017-03-11T04:08:39.463Z,1020.91
2017-03-11T04:09:50.560Z,1020.91
2017-03-11T04:11:01.418Z,1020.9
2017-03-11T04:12:11.853Z,1020.89
2017-03-11T04:13:22.275Z,1020.91
2017-03-11T04:14:32.725Z,1020.93
2017-03-11T04:15:43.024Z,1020.91
2017-03-11T04:16:53.467Z,1020.91
2017-03-11T04:18:03.905Z,1020.97
2017-03-11T04:19:14.764Z,1020.97
2017-03-11T04:20:25.632Z,1020.97
2017-03-11T04:21:36.377Z,1020.99
2017-03-11T04:22:47.206Z,1020.93
2017-03-11T04:23:57.255Z,1020.98
2017-03-11T04:25:08.129Z,1020.92
2017-03-11T04:26:18.582Z,1020.89
2017-03-11T04:27:29.290Z,1020.91
2017-03-11T04:28:38.532Z,1020.94
2017-03-11T04:29:49.376Z,1020.92
2017-03-11T04:31:00.234Z,1020.91
2017-03-11T04:32:10.681Z,1020.92
2017-03-11T04:33:21.389Z,1020.89
2017-03-11T04:34:32.237Z,1020.88
2017-03-11T04:35:43.082Z,1020.91
2017-03-11T04:36:53.120Z,1020.93
2017-03-11T04:38:03.155Z,1020.97
2017-03-11T04:39:14.295Z,1020.96
2017-03-11T04:40:23.928Z,1020.94
2017-03-11T04:41:34.374Z,1020.92
2017-03-11T04:42:44.842Z,1020.94
2017-03-11T04:43:55.296Z,1020.91
2017-03-11T04:45:06.393Z,1020.87
2017-03-11T04:46:17.251Z,1020.91
2017-03-11T04:47:28.111Z,1020.9
2017-03-11T04:48:39.009Z,1020.91
2017-03-11T04:49:49.046Z,1020.93
2017-03-11T04:50:59.779Z,1020.94
2017-03-11T04:52:10.641Z,1020.89
2017-03-11T04:53:21.511Z,1020.9
2017-03-11T04:54:31.943Z,1020.88
2017-03-11T04:55:41.976Z,1020.89
2017-03-11T04:56:52.686Z,1020.92
2017-03-11T04:58:03.540Z,1020.93
2017-03-11T04:59:13.997Z,1020.9
2017-03-11T05:00:24.046Z,1020.9
2017-03-11T05:01:34.509Z,1020.94
2017-03-11T05:02:45.210Z,1020.94
2017-03-11T05:03:56.068Z,1020.95
2017-03-11T05:05:06.522Z,1021.02
2017-03-11T05:06:17.373Z,1021.06
2017-03-11T05:07:28.246Z,1021
2017-03-11T05:08:39.353Z,1021.07
2017-03-11T05:09:50.212Z,1021.07
2017-03-11T05:11:01.057Z,1021.05
2017-03-11T05:12:11.940Z,1021.12
2017-03-11T05:13:22.794Z,1021.11
2017-03-11T05:14:33.888Z,1021.13
2017-03-11T05:15:45.008Z,1021.16
2017-03-11T05:16:55.468Z,1021.11
2017-03-11T05:18:06.313Z,1021.13
2017-03-11T05:19:16.781Z,1021.15
2017-03-11T05:20:27.488Z,1021.11
2017-03-11T05:21:37.930Z,1021.11
2017-03-11T05:22:48.361Z,1021.03
2017-03-11T05:23:59.213Z,1021.06
2017-03-11T05:25:09.646Z,1021.07
2017-03-11T05:26:20.377Z,1021.09
2017-03-11T05:27:30.419Z,1021.11
2017-03-11T05:28:41.271Z,1021.15
2017-03-11T05:29:51.302Z,1021.16
2017-03-11T05:31:01.329Z,1021.18
2017-03-11T05:32:12.007Z,1021.25
2017-03-11T05:33:22.461Z,1021.2
2017-03-11T05:34:33.315Z,1021.25
2017-03-11T05:35:43.769Z,1021.29
2017-03-11T05:36:54.221Z,1021.25
2017-03-11T05:38:04.925Z,1021.3
2017-03-11T05:39:14.973Z,1021.28
2017-03-11T05:40:25.805Z,1021.22
2017-03-11T05:41:36.647Z,1021.26
2017-03-11T05:42:46.289Z,1021.23
2017-03-11T05:43:56.969Z,1021.24
2017-03-11T05:45:07.423Z,1021.24
2017-03-11T05:46:17.877Z,1021.26
2017-03-11T05:47:28.336Z,1021.23
2017-03-11T05:48:37.958Z,1021.22
2017-03-11T05:49:49.058Z,1021.21
2017-03-11T05:50:59.107Z,1021.22
2017-03-11T05:52:09.568Z,1021.2
2017-03-11T05:53:20.016Z,1021.24
2017-03-11T05:54:30.861Z,1021.23
2017-03-11T05:55:41.158Z,1021.23
2017-03-11T05:56:52.003Z,1021.26
2017-03-11T05:58:02.838Z,1021.29
2017-03-11T05:59:13.683Z,1021.32
2017-03-11T06:00:24.122Z,1021.32
2017-03-11T06:01:35.117Z,1021.37
2017-03-11T06:02:45.587Z,1021.38
2017-03-11T06:03:56.464Z,1021.37
2017-03-11T06:05:06.897Z,1021.35
2017-03-11T06:06:16.934Z,1021.32
2017-03-11T06:07:27.235Z,1021.29
2017-03-11T06:08:37.677Z,1021.26
2017-03-11T06:09:47.750Z,1021.21
2017-03-11T06:10:58.609Z,1021.17
2017-03-11T06:12:09.458Z,1021.2
2017-03-11T06:13:20.544Z,1021.22
2017-03-11T06:14:31.399Z,1021.24
2017-03-11T06:15:41.447Z,1021.24
2017-03-11T06:16:52.314Z,1021.21
2017-03-11T06:18:02.771Z,1021.18
2017-03-11T06:19:13.095Z,1021.24
2017-03-11T06:20:23.517Z,1021.22
2017-03-11T06:21:33.971Z,1021.23
2017-03-11T06:22:44.825Z,1021.16
2017-03-11T06:23:55.262Z,1021.15
2017-03-11T06:25:06.381Z,1021.19
2017-03-11T06:26:16.847Z,1021.17
2017-03-11T06:27:26.877Z,1021.18
2017-03-11T06:28:37.756Z,1021.17
2017-03-11T06:29:48.214Z,1021.18
2017-03-11T06:30:59.338Z,1021.15
2017-03-11T06:32:10.193Z,1021.14
2017-03-11T06:33:20.656Z,1021.12
2017-03-11T06:34:31.084Z,1021.15
2017-03-11T06:35:41.955Z,1021.15
2017-03-11T06:36:52.662Z,1021.19
2017-03-11T06:38:02.717Z,1021.23
2017-03-11T06:39:13.571Z,1021.23
2017-03-11T06:40:24.431Z,1021.26
2017-03-11T06:41:34.889Z,1021.24
2017-03-11T06:42:45.619Z,1021.32
2017-03-11T06:43:56.052Z,1021.29
2017-03-11T06:45:06.521Z,1021.29
2017-03-11T06:46:17.383Z,1021.36
2017-03-11T06:47:27.840Z,1021.32
2017-03-11T06:48:38.533Z,1021.38
2017-03-11T06:49:49.383Z,1021.33
2017-03-11T06:51:00.227Z,1021.33
2017-03-11T06:52:11.062Z,1021.32
2017-03-11T06:53:21.516Z,1021.36
2017-03-11T06:54:32.217Z,1021.4
2017-03-11T06:55:42.307Z,1021.41
2017-03-11T06:56:53.155Z,1021.39
2017-03-11T06:58:04.009Z,1021.45
2017-03-11T06:59:14.480Z,1021.43
2017-03-11T07:00:25.648Z,1021.45
2017-03-11T07:01:36.099Z,1021.44
2017-03-11T07:02:46.950Z,1021.42
2017-03-11T07:03:57.810Z,1021.43
2017-03-11T07:05:07.862Z,1021.41
2017-03-11T07:06:19.081Z,1021.43
2017-03-11T07:07:29.533Z,1021.45
2017-03-11T07:08:40.397Z,1021.44
2017-03-11T07:09:50.099Z,1021.45
2017-03-11T07:11:00.542Z,1021.44
2017-03-11T07:12:11.229Z,1021.44
2017-03-11T07:13:22.130Z,1021.43
2017-03-11T07:14:32.603Z,1021.43
2017-03-11T07:15:43.059Z,1021.42
2017-03-11T07:16:53.124Z,1021.4
2017-03-11T07:18:03.833Z,1021.39
2017-03-11T07:19:13.881Z,1021.38
2017-03-11T07:20:24.748Z,1021.38
2017-03-11T07:21:35.605Z,1021.42
2017-03-11T07:22:45.680Z,1021.48
2017-03-11T07:23:56.405Z,1021.51
2017-03-11T07:25:06.882Z,1021.52
2017-03-11T07:26:17.736Z,1021.51
2017-03-11T07:27:28.698Z,1021.54
2017-03-11T07:28:39.541Z,1021.52
2017-03-11T07:29:49.838Z,1021.48
2017-03-11T07:31:00.774Z,1021.46
2017-03-11T07:32:11.227Z,1021.48
2017-03-11T07:33:21.675Z,1021.46
2017-03-11T07:34:32.134Z,1021.47
2017-03-11T07:35:42.091Z,1021.44
2017-03-11T07:36:52.555Z,1021.42
2017-03-11T07:38:03.006Z,1021.43
2017-03-11T07:39:13.490Z,1021.43
2017-03-11T07:40:23.969Z,1021.4
2017-03-11T07:41:35.075Z,1021.29
2017-03-11T07:42:45.537Z,1021.29
2017-03-11T07:43:55.998Z,1021.32
2017-03-11T07:45:06.462Z,1021.29
2017-03-11T07:46:16.916Z,1021.3
2017-03-11T07:47:27.242Z,1021.31
2017-03-11T07:48:37.297Z,1021.29
2017-03-11T07:49:47.748Z,1021.31
2017-03-11T07:50:57.831Z,1021.35
2017-03-11T07:52:08.794Z,1021.34
2017-03-11T07:53:19.900Z,1021.37
2017-03-11T07:54:30.756Z,1021.36
2017-03-11T07:55:41.623Z,1021.37
2017-03-11T07:56:52.484Z,1021.35
2017-03-11T07:58:03.347Z,1021.36
2017-03-11T07:59:14.465Z,1021.38
2017-03-11T08:00:24.531Z,1021.43
2017-03-11T08:01:35.005Z,1021.44
2017-03-11T08:02:45.049Z,1021.41
2017-03-11T08:03:55.530Z,1021.39
2017-03-11T08:05:06.272Z,1021.37
2017-03-11T08:06:16.330Z,1021.4
2017-03-11T08:07:26.769Z,1021.31
2017-03-11T08:08:36.828Z,1021.28
2017-03-11T08:09:47.951Z,1021.28
2017-03-11T08:10:58.277Z,1021.27
2017-03-11T08:12:09.113Z,1021.31
2017-03-11T08:13:19.213Z,1021.32
2017-03-11T08:14:29.689Z,1021.3
2017-03-11T08:15:40.126Z,1021.3
2017-03-11T08:16:50.803Z,1021.32
2017-03-11T08:18:01.665Z,1021.33
2017-03-11T08:19:12.506Z,1021.34
2017-03-11T08:20:23.412Z,1021.37
2017-03-11T08:21:33.852Z,1021.3
2017-03-11T08:22:44.154Z,1021.33
2017-03-11T08:23:53.379Z,1021.32
2017-03-11T08:25:03.771Z,1021.33
2017-03-11T08:26:14.151Z,1021.38
2017-03-11T08:27:24.519Z,1021.32
2017-03-11T08:28:35.118Z,1021.36
2017-03-11T08:29:45.882Z,1021.36
2017-03-11T08:30:56.228Z,1021.37
2017-03-11T08:32:06.982Z,1021.39
2017-03-11T08:33:17.337Z,1021.43
2017-03-11T08:34:28.349Z,1021.43
2017-03-11T08:35:39.105Z,1021.37
2017-03-11T08:36:49.044Z,1021.39
2017-03-11T08:37:59.809Z,1021.37
2017-03-11T08:39:10.167Z,1021.33
2017-03-11T08:40:19.980Z,1021.33
2017-03-11T08:41:30.338Z,1021.31
2017-03-11T08:42:40.720Z,1021.36
2017-03-11T08:43:51.482Z,1021.4
2017-03-11T08:45:01.828Z,1021.38
2017-03-11T08:46:12.839Z,1021.42
2017-03-11T08:47:22.794Z,1021.43
2017-03-11T08:48:33.560Z,1021.43
2017-03-11T08:49:43.507Z,1021.48
2017-03-11T08:50:52.686Z,1021.49
2017-03-11T08:52:03.313Z,1021.48
2017-03-11T08:53:14.068Z,1021.46
2017-03-11T08:54:23.633Z,1021.52
2017-03-11T08:55:33.215Z,1021.54
2017-03-11T08:56:43.979Z,1021.54
2017-03-11T08:57:54.958Z,1021.5
2017-03-11T08:59:05.716Z,1021.47
2017-03-11T09:00:16.506Z,1021.47
2017-03-11T09:01:26.485Z,1021.45
2017-03-11T09:02:37.236Z,1021.46
2017-03-11T09:03:47.831Z,1021.43
2017-03-11T09:04:58.192Z,1021.43
2017-03-11T09:06:08.938Z,1021.46
2017-03-11T09:07:19.287Z,1021.46
2017-03-11T09:08:30.071Z,1021.42
2017-03-11T09:09:39.500Z,1021.46
2017-03-11T09:10:50.270Z,1021.49
2017-03-11T09:12:01.060Z,1021.49
2017-03-11T09:13:11.014Z,1021.48
2017-03-11T09:14:21.789Z,1021.49
2017-03-11T09:15:32.881Z,1021.48
2017-03-11T09:16:43.237Z,1021.5
2017-03-11T09:17:54.023Z,1021.48
2017-03-11T09:19:04.782Z,1021.5
2017-03-11T09:20:15.201Z,1021.45
2017-03-11T09:21:26.256Z,1021.44
2017-03-11T09:22:37.025Z,1021.46
2017-03-11T09:23:47.373Z,1021.43
2017-03-11T09:24:57.735Z,1021.49
2017-03-11T09:26:08.482Z,1021.46
2017-03-11T09:27:19.153Z,1021.45
2017-03-11T09:28:29.518Z,1021.47
2017-03-11T09:29:40.300Z,1021.46
2017-03-11T09:30:51.162Z,1021.46
2017-03-11T09:32:01.938Z,1021.43
2017-03-11T09:33:12.960Z,1021.47
2017-03-11T09:34:23.722Z,1021.44
2017-03-11T09:35:34.054Z,1021.43
2017-03-11T09:36:44.806Z,1021.44
2017-03-11T09:37:54.778Z,1021.43
2017-03-11T09:39:05.460Z,1021.44
2017-03-11T09:40:16.234Z,1021.41
2017-03-11T09:41:26.621Z,1021.4
2017-03-11T09:42:36.964Z,1021.38
2017-03-11T09:43:47.732Z,1021.38
2017-03-11T09:44:58.353Z,1021.39
2017-03-11T09:46:09.111Z,1021.43
2017-03-11T09:47:19.879Z,1021.43
2017-03-11T09:48:29.821Z,1021.46
2017-03-11T09:49:40.170Z,1021.42
2017-03-11T09:50:51.175Z,1021.4
2017-03-11T09:52:01.137Z,1021.38
2017-03-11T09:53:11.501Z,1021.36
2017-03-11T09:54:22.285Z,1021.34
2017-03-11T09:55:32.645Z,1021.31
2017-03-11T09:56:42.852Z,1021.32
2017-03-11T09:57:53.607Z,1021.28
2017-03-11T09:59:04.373Z,1021.32
2017-03-11T10:00:14.737Z,1021.32
2017-03-11T10:01:25.511Z,1021.33
2017-03-11T10:02:36.142Z,1021.36
2017-03-11T10:03:46.914Z,1021.35
2017-03-11T10:04:57.675Z,1021.32
2017-03-11T10:06:08.055Z,1021.31
2017-03-11T10:07:18.820Z,1021.34
2017-03-11T10:08:29.820Z,1021.32
2017-03-11T10:09:40.593Z,1021.3
2017-03-11T10:10:51.336Z,1021.32
2017-03-11T10:12:02.109Z,1021.3
2017-03-11T10:13:12.525Z,1021.38
2017-03-11T10:14:23.524Z,1021.35
2017-03-11T10:15:33.493Z,1021.4
2017-03-11T10:16:43.880Z,1021.34
2017-03-11T10:17:53.857Z,1021.27
2017-03-11T10:19:04.215Z,1021.27
2017-03-11T10:20:14.868Z,1021.26
2017-03-11T10:21:25.253Z,1021.23
2017-03-11T10:22:35.621Z,1021.28
2017-03-11T10:23:45.585Z,1021.26
2017-03-11T10:24:55.953Z,1021.23
2017-03-11T10:26:06.158Z,1021.21
2017-03-11T10:27:16.511Z,1021.22
2017-03-11T10:28:26.853Z,1021.26
2017-03-11T10:29:37.567Z,1021.22
2017-03-11T10:30:47.540Z,1021.31
2017-03-11T10:31:57.361Z,1021.29
2017-03-11T10:33:07.317Z,1021.32
2017-03-11T10:34:18.050Z,1021.27
2017-03-11T10:35:28.386Z,1021.29
2017-03-11T10:36:39.141Z,1021.25
2017-03-11T10:37:49.758Z,1021.25
2017-03-11T10:38:59.314Z,1021.24
2017-03-11T10:40:09.291Z,1021.21
2017-03-11T10:41:19.644Z,1021.23
2017-03-11T10:42:29.989Z,1021.2
2017-03-11T10:43:40.985Z,1021.19
2017-03-11T10:44:50.971Z,1021.21
2017-03-11T10:46:00.901Z,1021.14
2017-03-11T10:47:11.233Z,1021.13
2017-03-11T10:48:21.163Z,1021.15
2017-03-11T10:49:32.146Z,1021.14
2017-03-11T10:50:42.485Z,1021.12
2017-03-11T10:51:52.026Z,1021.14
2017-03-11T10:53:01.992Z,1021.16
2017-03-11T10:54:11.941Z,1021.11
2017-03-11T10:55:22.123Z,1021.11
2017-03-11T10:56:31.660Z,1021.15
2017-03-11T10:57:41.196Z,1021.11
2017-03-11T10:58:51.931Z,1021.14
2017-03-11T11:00:02.285Z,1021.17
2017-03-11T11:01:12.860Z,1021.15
2017-03-11T11:02:23.624Z,1021.11
2017-03-11T11:03:34.352Z,1021.12
2017-03-11T11:04:45.097Z,1021.12
2017-03-11T11:05:55.836Z,1021.1
2017-03-11T11:07:06.439Z,1021.08
2017-03-11T11:08:17.178Z,1021.09
2017-03-11T11:09:27.906Z,1021.07
2017-03-11T11:10:38.251Z,1021.07
2017-03-11T11:11:49.070Z,1021.08
2017-03-11T11:12:59.269Z,1021.1
2017-03-11T11:14:09.624Z,1021.05
2017-03-11T11:15:19.954Z,1021.1
2017-03-11T11:16:29.515Z,1021.06
2017-03-11T11:17:40.238Z,1021.07
2017-03-11T11:18:50.822Z,1021.02
2017-03-11T11:20:00.754Z,1020.99
2017-03-11T11:21:11.125Z,1020.99
2017-03-11T11:22:20.670Z,1020.97
2017-03-11T11:23:31.417Z,1020.97
2017-03-11T11:24:41.631Z,1020.95
2017-03-11T11:25:51.597Z,1020.91
2017-03-11T11:27:02.070Z,1020.89
2017-03-11T11:28:12.454Z,1020.92
2017-03-11T11:29:23.217Z,1020.89
2017-03-11T11:30:33.855Z,1020.86
2017-03-11T11:31:44.647Z,1020.9
2017-03-11T11:32:55.421Z,1020.86
2017-03-11T11:34:05.799Z,1020.84
2017-03-11T11:35:16.560Z,1020.8
2017-03-11T11:36:27.611Z,1020.79
2017-03-11T11:37:37.588Z,1020.78
2017-03-11T11:38:47.962Z,1020.79
2017-03-11T11:39:58.337Z,1020.8
2017-03-11T11:41:08.299Z,1020.8
2017-03-11T11:42:18.555Z,1020.78
2017-03-11T11:43:28.561Z,1020.78
2017-03-11T11:44:38.946Z,1020.77
2017-03-11T11:45:49.706Z,1020.73
2017-03-11T11:47:00.066Z,1020.72
2017-03-11T11:48:10.661Z,1020.72
2017-03-11T11:49:21.430Z,1020.75
2017-03-11T11:50:32.210Z,1020.73
2017-03-11T11:51:42.165Z,1020.75
2017-03-11T11:52:52.907Z,1020.74
2017-03-11T11:54:03.520Z,1020.73
2017-03-11T11:55:13.886Z,1020.75
2017-03-11T11:56:23.836Z,1020.71
2017-03-11T11:57:33.807Z,1020.7
2017-03-11T11:58:44.556Z,1020.71
2017-03-11T11:59:55.181Z,1020.71
2017-03-11T12:01:05.564Z,1020.68
2017-03-11T12:02:15.532Z,1020.66
2017-03-11T12:03:26.342Z,1020.67
2017-03-11T12:04:36.719Z,1020.67
2017-03-11T12:05:47.714Z,1020.66
2017-03-11T12:06:58.093Z,1020.6
2017-03-11T12:08:08.466Z,1020.64
2017-03-11T12:09:18.434Z,1020.67
2017-03-11T12:10:28.831Z,1020.63
2017-03-11T12:11:39.446Z,1020.6
2017-03-11T12:12:49.791Z,1020.59
2017-03-11T12:14:00.137Z,1020.63
2017-03-11T12:15:10.502Z,1020.57
2017-03-11T12:16:21.269Z,1020.59
2017-03-11T12:17:31.890Z,1020.54
2017-03-11T12:18:41.907Z,1020.54
2017-03-11T12:19:51.874Z,1020.5
2017-03-11T12:21:02.214Z,1020.49
2017-03-11T12:22:12.193Z,1020.5
2017-03-11T12:23:23.240Z,1020.5
2017-03-11T12:24:33.206Z,1020.51
2017-03-11T12:25:43.174Z,1020.47
2017-03-11T12:26:53.932Z,1020.49
2017-03-11T12:28:04.693Z,1020.49
2017-03-11T12:29:14.913Z,1020.49
2017-03-11T12:30:25.272Z,1020.45
2017-03-11T12:31:35.599Z,1020.44
2017-03-11T12:32:46.005Z,1020.4
2017-03-11T12:33:56.374Z,1020.38
2017-03-11T12:35:07.465Z,1020.34
2017-03-11T12:36:17.848Z,1020.35
2017-03-11T12:37:28.214Z,1020.35
2017-03-11T12:38:39.033Z,1020.38
2017-03-11T12:39:49.779Z,1020.39
2017-03-11T12:41:00.883Z,1020.36
2017-03-11T12:42:11.231Z,1020.34
2017-03-11T12:43:21.967Z,1020.39
2017-03-11T12:44:32.722Z,1020.34
2017-03-11T12:45:43.068Z,1020.31
2017-03-11T12:46:53.293Z,1020.29
2017-03-11T12:48:04.041Z,1020.31
2017-03-11T12:49:14.393Z,1020.29
2017-03-11T12:50:24.342Z,1020.27
2017-03-11T12:51:34.312Z,1020.29
2017-03-11T12:52:44.127Z,1020.28
2017-03-11T12:53:53.295Z,1020.26
2017-03-11T12:55:03.259Z,1020.26
2017-03-11T12:56:13.244Z,1020.26
2017-03-11T12:57:23.580Z,1020.23
2017-03-11T12:58:33.808Z,1020.27
2017-03-11T12:59:44.153Z,1020.24
2017-03-11T13:00:54.562Z,1020.24
2017-03-11T13:02:04.528Z,1020.22
2017-03-11T13:03:14.892Z,1020.17
2017-03-11T13:04:25.486Z,1020.2
2017-03-11T13:05:35.459Z,1020.21
2017-03-11T13:06:44.614Z,1020.19
2017-03-11T13:07:54.591Z,1020.18
2017-03-11T13:09:04.550Z,1020.21
2017-03-11T13:10:19.300Z,1020.18
2017-03-11T13:11:29.282Z,1020.22
2017-03-11T13:12:39.623Z,1020.19
2017-03-11T13:13:49.568Z,1020.2
2017-03-11T13:14:59.510Z,1020.16
2017-03-11T13:16:09.701Z,1020.19
2017-03-11T13:17:20.085Z,1020.19
2017-03-11T13:18:29.654Z,1020.15
2017-03-11T13:19:39.590Z,1020.12
2017-03-11T13:20:49.920Z,1020.14
2017-03-11T13:22:00.956Z,1020.13
2017-03-11T13:23:11.276Z,1020.11
2017-03-11T13:24:21.224Z,1020.14
2017-03-11T13:25:31.184Z,1020.11
2017-03-11T13:26:41.558Z,1020.09
2017-03-11T13:27:51.814Z,1020.07
2017-03-11T13:29:02.554Z,1020.04
2017-03-11T13:30:12.513Z,1020.04
2017-03-11T13:31:22.847Z,1019.99
2017-03-11T13:32:33.616Z,1020.01
2017-03-11T13:33:43.828Z,1020.05
2017-03-11T13:34:54.571Z,1019.99
2017-03-11T13:36:05.323Z,1019.99
2017-03-11T13:37:14.876Z,1020.02
2017-03-11T13:38:24.435Z,1020.06
2017-03-11T13:39:33.880Z,1020.02
2017-03-11T13:40:44.233Z,1020.01
2017-03-11T13:41:53.789Z,1020.03
2017-03-11T13:43:04.117Z,1020.08
2017-03-11T13:44:14.073Z,1020.04
2017-03-11T13:45:25.114Z,1020.01
2017-03-11T13:46:34.651Z,1019.99
2017-03-11T13:47:45.379Z,1019.99
2017-03-11T13:48:54.542Z,1019.99
2017-03-11T13:50:04.522Z,1019.96
2017-03-11T13:51:15.167Z,1019.94
2017-03-11T13:52:25.543Z,1019.95
2017-03-11T13:53:36.423Z,1019.93
2017-03-11T13:54:47.180Z,1019.95
2017-03-11T13:55:57.949Z,1019.94
2017-03-11T13:57:08.939Z,1019.93
2017-03-11T13:58:19.341Z,1019.91
2017-03-11T13:59:29.729Z,1019.99
2017-03-11T14:00:40.076Z,1019.91
2017-03-11T14:01:50.032Z,1019.95
2017-03-11T14:02:59.921Z,1019.92
2017-03-11T14:04:10.287Z,1019.95
2017-03-11T14:05:21.055Z,1019.9
2017-03-11T14:06:31.806Z,1019.89
2017-03-11T14:07:42.579Z,1019.87
2017-03-11T14:08:53.590Z,1019.85
2017-03-11T14:10:04.347Z,1019.88
2017-03-11T14:11:15.105Z,1019.91
2017-03-11T14:12:25.890Z,1019.84
2017-03-11T14:13:36.643Z,1019.86
2017-03-11T14:14:47.740Z,1019.83